createdAt,value
2018-09-10T00:01:08.909Z,18.96
2018-09-10T00:03:37.741Z,18.85
2018-09-10T00:06:06.615Z,18.78
2018-09-10T00:08:35.530Z,18.67
2018-09-10T00:11:04.362Z,18.55
2018-09-10T00:13:33.251Z,18.42
2018-09-10T00:16:02.076Z,18.35
2018-09-10T00:18:30.924Z,18.34
2018-09-10T00:20:59.790Z,18.19
2018-09-10T00:23:28.615Z,18.39
2018-09-10T00:25:57.438Z,18.51
2018-09-10T00:28:26.328Z,18.63
2018-09-10T00:30:55.167Z,18.56
2018-09-10T00:33:26.233Z,18.31
2018-09-10T00:35:55.151Z,18.17
2018-09-10T00:38:23.957Z,18.11
2018-09-10T00:40:52.783Z,17.99
2018-09-10T00:43:21.782Z,18.00
2018-09-10T00:45:50.611Z,17.87
2018-09-10T00:48:19.444Z,17.81
2018-09-10T00:50:48.307Z,17.80
2018-09-10T00:53:17.111Z,17.77
2018-09-10T00:55:45.927Z,17.74
2018-09-10T00:58:14.950Z,17.71
2018-09-10T01:00:43.823Z,17.78
2018-09-10T01:03:12.644Z,17.74
2018-09-10T01:05:41.507Z,17.72
2018-09-10T01:08:10.351Z,17.77
2018-09-10T01:10:39.191Z,17.89
2018-09-10T01:13:08.110Z,18.02
2018-09-10T01:15:36.920Z,17.88
2018-09-10T01:18:05.803Z,17.83
2018-09-10T01:20:34.634Z,17.85
2018-09-10T01:23:03.453Z,17.90
2018-09-10T01:25:32.339Z,18.07
2018-09-10T01:28:01.162Z,18.05
2018-09-10T01:30:29.985Z,17.98
2018-09-10T01:32:58.899Z,17.92
2018-09-10T01:35:29.205Z,17.80
2018-09-10T01:37:58.067Z,17.71
2018-09-10T01:40:26.910Z,17.67
2018-09-10T01:42:55.880Z,17.73
2018-09-10T01:45:24.696Z,17.76
2018-09-10T01:47:53.582Z,17.83
2018-09-10T01:50:22.393Z,17.80
2018-09-10T01:52:51.206Z,17.81
2018-09-10T01:55:20.076Z,17.86
2018-09-10T01:57:48.886Z,17.86
2018-09-10T02:00:17.705Z,17.80
2018-09-10T02:02:46.653Z,17.76
2018-09-10T02:05:15.527Z,17.80
2018-09-10T02:07:44.340Z,17.76
2018-09-10T02:10:13.322Z,17.83
2018-09-10T02:12:42.151Z,17.76
2018-09-10T02:15:10.990Z,17.75
2018-09-10T02:17:39.870Z,17.41
2018-09-10T02:20:08.715Z,17.65
2018-09-10T02:22:37.685Z,17.67
2018-09-10T02:25:06.599Z,17.58
2018-09-10T02:27:35.440Z,17.52
2018-09-10T02:30:04.354Z,17.58
2018-09-10T02:32:33.231Z,17.71
2018-09-10T02:35:02.119Z,17.76
2018-09-10T02:37:31.035Z,17.80
2018-09-10T02:39:59.954Z,17.82
2018-09-10T02:42:28.807Z,17.86
2018-09-10T02:44:57.820Z,17.88
2018-09-10T02:47:26.735Z,17.94
2018-09-10T02:49:55.887Z,17.97
2018-09-10T02:52:24.739Z,17.99
2018-09-10T02:54:53.617Z,17.92
2018-09-10T02:57:22.451Z,17.80
2018-09-10T02:59:51.264Z,17.71
2018-09-10T03:02:20.159Z,17.68
2018-09-10T03:04:48.988Z,17.72
2018-09-10T03:07:17.793Z,17.75
2018-09-10T03:09:46.691Z,17.71
2018-09-10T03:12:15.506Z,17.66
2018-09-10T03:14:44.415Z,17.58
2018-09-10T03:17:14.514Z,17.62
2018-09-10T03:19:43.333Z,17.64
2018-09-10T03:22:12.219Z,17.68
2018-09-10T03:24:41.054Z,17.68
2018-09-10T03:27:09.895Z,17.69
2018-09-10T03:29:38.838Z,17.73
2018-09-10T03:32:07.860Z,17.70
2018-09-10T03:34:36.694Z,17.74
2018-09-10T03:37:06.029Z,17.73
2018-09-10T03:39:34.906Z,17.74
2018-09-10T03:42:03.742Z,17.76
2018-09-10T03:44:32.749Z,17.76
2018-09-10T03:47:01.603Z,17.68
2018-09-10T03:49:30.520Z,17.68
2018-09-10T03:51:59.398Z,17.67
2018-09-10T03:54:28.266Z,17.64
2018-09-10T03:56:57.076Z,17.67
2018-09-10T03:59:26.048Z,17.61
2018-09-10T04:01:54.882Z,17.56
2018-09-10T04:04:23.785Z,17.42
2018-09-10T04:06:54.037Z,17.53
2018-09-10T04:09:22.858Z,17.48
2018-09-10T04:11:51.734Z,17.48
2018-09-10T04:14:20.559Z,17.53
2018-09-10T04:16:49.385Z,17.57
2018-09-10T04:19:18.408Z,17.66
2018-09-10T04:21:47.247Z,17.68
2018-09-10T04:24:16.072Z,17.64
2018-09-10T04:26:45.026Z,17.62
2018-09-10T04:29:13.890Z,17.58
2018-09-10T04:31:42.681Z,17.59
2018-09-10T04:34:11.531Z,17.65
2018-09-10T04:36:40.354Z,17.60
2018-09-10T04:39:10.518Z,17.65
2018-09-10T04:41:41.966Z,17.68
2018-09-10T04:44:10.777Z,17.75
2018-09-10T04:46:40.161Z,17.78
2018-09-10T04:49:09.915Z,17.80
2018-09-10T04:51:38.711Z,17.89
2018-09-10T04:54:07.517Z,17.89
2018-09-10T04:56:37.690Z,17.96
2018-09-10T04:59:06.518Z,17.99
2018-09-10T05:01:35.356Z,17.99
2018-09-10T05:04:04.263Z,18.08
2018-09-10T05:06:33.130Z,18.12
2018-09-10T05:09:01.934Z,18.14
2018-09-10T05:11:30.786Z,18.23
2018-09-10T05:13:59.579Z,18.23
2018-09-10T05:16:28.380Z,18.30
2018-09-10T05:18:57.233Z,18.41
2018-09-10T05:21:26.039Z,18.48
2018-09-10T05:23:54.840Z,18.51
2018-09-10T05:26:23.695Z,18.58
2018-09-10T05:28:52.503Z,18.59
2018-09-10T05:31:21.299Z,18.75
2018-09-10T05:33:50.163Z,18.86
2018-09-10T05:36:18.998Z,19.00
2018-09-10T05:38:47.835Z,19.04
2018-09-10T05:41:16.673Z,19.06
2018-09-10T05:43:45.500Z,19.09
2018-09-10T05:46:14.323Z,19.02
2018-09-10T05:48:43.222Z,19.01
2018-09-10T05:51:12.027Z,18.88
2018-09-10T05:53:40.863Z,19.09
2018-09-10T05:56:10.921Z,19.26
2018-09-10T05:58:39.754Z,19.17
2018-09-10T06:01:08.618Z,19.29
2018-09-10T06:03:37.483Z,19.43
2018-09-10T06:06:06.372Z,19.59
2018-09-10T06:08:35.241Z,19.54
2018-09-10T06:11:04.165Z,19.87
2018-09-10T06:13:34.257Z,20.01
2018-09-10T06:16:04.372Z,19.98
2018-09-10T06:18:33.234Z,19.96
2018-09-10T06:21:02.055Z,20.14
2018-09-10T06:23:30.900Z,20.24
2018-09-10T06:26:04.289Z,20.08
2018-09-10T06:28:34.385Z,20.18
2018-09-10T06:31:03.216Z,20.41
2018-09-10T06:33:32.099Z,20.62
2018-09-10T06:36:00.960Z,20.60
2018-09-10T06:38:29.799Z,20.77
2018-09-10T06:40:58.648Z,20.88
2018-09-10T06:43:27.490Z,20.53
2018-09-10T06:45:56.288Z,20.86
2018-09-10T06:48:25.146Z,20.92
2018-09-10T06:50:54.109Z,21.06
2018-09-10T06:53:23.050Z,21.12
2018-09-10T06:55:53.127Z,20.94
2018-09-10T06:58:22.329Z,21.01
2018-09-10T07:00:51.372Z,21.50
2018-09-10T07:03:20.275Z,21.91
2018-09-10T07:05:49.183Z,21.86
2018-09-10T07:08:20.622Z,21.87
2018-09-10T07:10:49.556Z,22.03
2018-09-10T07:13:18.511Z,21.67
2018-09-10T07:15:48.480Z,21.53
2018-09-10T07:18:17.360Z,21.71
2018-09-10T07:20:46.231Z,22.01
2018-09-10T07:23:15.081Z,22.48
2018-09-10T07:25:43.892Z,22.38
2018-09-10T07:28:13.046Z,22.39
2018-09-10T07:30:41.961Z,22.76
2018-09-10T07:33:10.870Z,23.02
2018-09-10T07:35:39.723Z,22.98
2018-09-10T07:38:08.531Z,23.18
2018-09-10T07:40:38.832Z,23.28
2018-09-10T07:43:07.683Z,23.54
2018-09-10T07:45:36.663Z,23.78
2018-09-10T07:48:05.865Z,23.87
2018-09-10T07:50:34.720Z,23.88
2018-09-10T07:53:03.588Z,23.99
2018-09-10T07:55:33.703Z,24.13
2018-09-10T07:58:02.521Z,24.39
2018-09-10T08:00:31.414Z,24.61
2018-09-10T08:03:01.996Z,24.21
2018-09-10T08:05:30.820Z,24.35
2018-09-10T08:07:59.692Z,24.45
2018-09-10T08:10:29.929Z,24.56
2018-09-10T08:12:58.779Z,24.37
2018-09-10T08:15:27.780Z,24.46
2018-09-10T08:17:56.781Z,24.57
2018-09-10T08:20:25.634Z,24.60
2018-09-10T08:22:54.507Z,24.41
2018-09-10T08:25:23.355Z,24.50
2018-09-10T08:27:52.311Z,24.65
2018-09-10T08:30:21.258Z,24.67
2018-09-10T08:32:50.103Z,24.86
2018-09-10T08:35:18.963Z,24.91
2018-09-10T08:37:49.418Z,24.50
2018-09-10T08:40:18.287Z,24.74
2018-09-10T08:42:47.142Z,24.92
2018-09-10T08:45:16.083Z,24.92
2018-09-10T08:47:44.938Z,24.96
2018-09-10T08:50:13.806Z,25.13
2018-09-10T08:52:42.666Z,25.22
2018-09-10T08:55:11.636Z,25.05
2018-09-10T08:57:41.220Z,25.05
2018-09-10T09:00:11.648Z,25.24
2018-09-10T09:02:40.661Z,24.50
2018-09-10T09:05:09.490Z,24.45
2018-09-10T09:07:38.755Z,24.43
2018-09-10T09:10:07.867Z,24.88
2018-09-10T09:12:36.726Z,25.03
2018-09-10T09:15:05.696Z,24.85
2018-09-10T09:17:34.869Z,25.14
2018-09-10T09:20:03.762Z,25.45
2018-09-10T09:22:33.847Z,25.63
2018-09-10T09:25:02.684Z,25.79
2018-09-10T09:27:31.547Z,25.80
2018-09-10T09:30:01.922Z,25.86
2018-09-10T09:32:30.846Z,26.02
2018-09-10T09:35:00.057Z,26.30
2018-09-10T09:38:34.216Z,26.42
2018-09-10T09:41:08.103Z,26.39
2018-09-10T09:43:42.125Z,26.37
2018-09-10T09:46:13.505Z,26.67
2018-09-10T09:48:42.402Z,25.96
2018-09-10T09:51:11.946Z,26.31
2018-09-10T09:53:40.797Z,26.69
2018-09-10T09:56:09.782Z,26.74
2018-09-10T09:58:38.664Z,26.50
2018-09-10T10:01:13.057Z,26.44
2018-09-10T10:03:46.928Z,26.56
2018-09-10T10:06:15.906Z,26.57
2018-09-10T10:08:44.759Z,26.24
2018-09-10T10:11:13.631Z,26.24
2018-09-10T10:13:42.508Z,26.39
2018-09-10T10:16:11.347Z,26.48
2018-09-10T10:18:40.192Z,26.69
2018-09-10T10:21:09.393Z,26.58
2018-09-10T10:23:38.757Z,26.79
2018-09-10T10:26:07.632Z,26.80
2018-09-10T10:28:36.592Z,26.82
2018-09-10T10:31:05.437Z,26.68
2018-09-10T10:33:34.280Z,26.85
2018-09-10T10:36:03.182Z,26.43
2018-09-10T10:38:32.061Z,26.80
2018-09-10T10:41:01.024Z,26.66
2018-09-10T10:43:29.934Z,26.54
2018-09-10T10:45:59.035Z,26.91
2018-09-10T10:48:29.114Z,27.45
2018-09-10T10:50:57.993Z,28.11
2018-09-10T10:53:26.814Z,28.30
2018-09-10T10:55:55.715Z,28.76
2018-09-10T10:58:24.635Z,29.10
2018-09-10T11:00:53.490Z,28.92
2018-09-10T11:03:23.653Z,29.14
2018-09-10T11:05:53.731Z,28.95
2018-09-10T11:08:22.581Z,28.38
2018-09-10T11:10:52.696Z,28.71
2018-09-10T11:13:21.540Z,28.69
2018-09-10T11:15:50.412Z,29.10
2018-09-10T11:18:19.320Z,29.14
2018-09-10T11:20:48.161Z,29.22
2018-09-10T11:23:17.056Z,29.37
2018-09-10T11:25:46.044Z,29.57
2018-09-10T11:28:14.900Z,29.70
2018-09-10T11:30:43.787Z,29.35
2018-09-10T11:33:14.056Z,27.96
2018-09-10T11:35:42.946Z,28.11
2018-09-10T11:38:11.775Z,28.75
2018-09-10T11:40:40.624Z,29.06
2018-09-10T11:43:09.586Z,29.38
2018-09-10T11:45:38.452Z,29.74
2018-09-10T11:48:07.345Z,29.45
2018-09-10T11:50:37.638Z,28.93
2018-09-10T11:53:06.543Z,29.42
2018-09-10T11:55:35.595Z,28.87
2018-09-10T11:58:04.627Z,28.34
2018-09-10T12:00:33.589Z,28.46
2018-09-10T12:03:02.443Z,28.07
2018-09-10T12:05:31.324Z,28.30
2018-09-10T12:08:00.151Z,28.51
2018-09-10T12:10:29.014Z,28.83
2018-09-10T12:13:00.588Z,28.91
2018-09-10T12:15:29.563Z,28.93
2018-09-10T12:17:58.415Z,28.67
2018-09-10T12:20:28.696Z,28.29
2018-09-10T12:22:58.113Z,28.80
2018-09-10T12:25:27.011Z,29.04
2018-09-10T12:27:55.892Z,28.90
2018-09-10T12:30:24.720Z,29.14
2018-09-10T12:32:53.655Z,29.02
2018-09-10T12:35:23.778Z,29.35
2018-09-10T12:37:52.772Z,29.61
2018-09-10T12:40:21.630Z,28.53
2018-09-10T12:42:50.478Z,28.69
2018-09-10T12:45:19.319Z,28.85
2018-09-10T12:47:48.207Z,28.77
2018-09-10T12:50:17.039Z,28.16
2018-09-10T12:52:45.959Z,28.24
2018-09-10T12:55:14.884Z,28.47
2018-09-10T12:57:43.755Z,28.56
2018-09-10T13:00:12.685Z,28.48
2018-09-10T13:02:41.629Z,29.30
2018-09-10T13:05:10.458Z,31.20
2018-09-10T13:07:39.506Z,32.53
2018-09-10T13:10:08.426Z,31.17
2018-09-10T13:12:37.329Z,30.81
2018-09-10T13:15:07.586Z,30.78
2018-09-10T13:17:36.530Z,30.30
2018-09-10T13:20:05.511Z,29.38
2018-09-10T13:22:34.466Z,29.86
2018-09-10T13:25:03.340Z,29.89
2018-09-10T13:27:32.259Z,29.69
2018-09-10T13:30:01.109Z,29.64
2018-09-10T13:32:30.090Z,29.25
2018-09-10T13:34:58.959Z,28.93
2018-09-10T13:37:27.849Z,28.55
2018-09-10T13:39:56.833Z,28.96
2018-09-10T13:42:25.678Z,29.20
2018-09-10T13:44:54.548Z,28.92
2018-09-10T13:47:23.526Z,28.80
2018-09-10T13:49:52.448Z,28.75
2018-09-10T13:52:21.385Z,28.40
2018-09-10T13:54:50.330Z,28.30
2018-09-10T13:57:19.238Z,28.42
2018-09-10T13:59:48.220Z,28.18
2018-09-10T14:02:18.348Z,28.51
2018-09-10T14:04:47.265Z,29.40
2018-09-10T14:07:16.130Z,29.56
2018-09-10T14:09:46.345Z,29.67
2018-09-10T14:12:15.199Z,29.72
2018-09-10T14:14:44.077Z,29.58
2018-09-10T14:17:13.299Z,29.68
2018-09-10T14:19:42.130Z,29.78
2018-09-10T14:22:11.084Z,29.72
2018-09-10T14:24:41.293Z,29.38
2018-09-10T14:27:11.426Z,28.94
2018-09-10T14:29:40.306Z,28.71
2018-09-10T14:32:10.591Z,28.78
2018-09-10T14:34:39.538Z,28.58
2018-09-10T14:37:08.441Z,28.37
2018-09-10T14:39:38.661Z,28.30
2018-09-10T14:42:07.594Z,28.05
2018-09-10T14:44:36.498Z,28.05
2018-09-10T14:47:05.470Z,27.89
2018-09-10T14:49:34.358Z,27.61
2018-09-10T14:52:03.254Z,27.57
2018-09-10T14:54:32.159Z,27.64
2018-09-10T14:57:01.135Z,27.56
2018-09-10T14:59:30.021Z,27.69
2018-09-10T15:01:58.913Z,27.68
2018-09-10T15:04:27.870Z,27.64
2018-09-10T15:06:56.760Z,27.52
2018-09-10T15:09:25.681Z,27.29
2018-09-10T15:11:54.596Z,27.27
2018-09-10T15:14:25.055Z,27.42
2018-09-10T15:16:53.869Z,27.65
2018-09-10T15:19:22.758Z,27.55
2018-09-10T15:21:51.680Z,27.71
2018-09-10T15:24:20.629Z,27.62
2018-09-10T15:26:49.533Z,27.56
2018-09-10T15:29:21.162Z,27.39
2018-09-10T15:31:50.064Z,27.27
2018-09-10T15:34:20.262Z,27.06
2018-09-10T15:36:49.141Z,27.03
2018-09-10T15:39:19.264Z,26.96
2018-09-10T15:41:48.112Z,26.81
2018-09-10T15:44:16.948Z,26.75
2018-09-10T15:46:45.878Z,26.78
2018-09-10T15:49:14.757Z,26.58
2018-09-10T15:51:44.866Z,26.50
2018-09-10T15:54:13.749Z,26.42
2018-09-10T15:56:43.096Z,26.35
2018-09-10T15:59:14.624Z,26.32
2018-09-10T16:01:43.690Z,26.28
2018-09-10T16:04:12.642Z,26.26
2018-09-10T16:06:41.779Z,26.12
2018-09-10T16:09:10.813Z,25.98
2018-09-10T16:11:39.677Z,25.97
2018-09-10T16:14:08.589Z,25.98
2018-09-10T16:16:37.468Z,25.97
2018-09-10T16:19:06.337Z,25.97
2018-09-10T16:21:35.285Z,25.96
2018-09-10T16:24:04.223Z,25.92
2018-09-10T16:26:33.102Z,25.93
2018-09-10T16:29:02.617Z,25.87
2018-09-10T16:31:31.726Z,25.90
2018-09-10T16:34:00.671Z,25.81
2018-09-10T16:36:29.576Z,25.58
2018-09-10T16:38:58.495Z,25.54
2018-09-10T16:41:27.346Z,25.13
2018-09-10T16:43:56.212Z,24.15
2018-09-10T16:46:25.268Z,23.64
2018-09-10T16:48:54.234Z,23.49
2018-09-10T16:51:23.090Z,23.21
2018-09-10T16:53:51.929Z,23.06
2018-09-10T16:56:22.315Z,22.94
2018-09-10T16:58:51.207Z,22.90
2018-09-10T17:01:20.078Z,22.83
2018-09-10T17:03:50.157Z,22.72
2018-09-10T17:06:19.021Z,22.70
2018-09-10T17:08:47.950Z,22.47
2018-09-10T17:11:17.012Z,22.70
2018-09-10T17:13:45.904Z,22.67
2018-09-10T17:16:15.089Z,22.63
2018-09-10T17:18:44.061Z,22.57
2018-09-10T17:21:12.985Z,22.53
2018-09-10T17:23:41.866Z,22.51
2018-09-10T17:26:10.802Z,22.45
2018-09-10T17:28:39.674Z,22.41
2018-09-10T17:31:08.502Z,22.38
2018-09-10T17:33:38.907Z,22.37
2018-09-10T17:36:09.013Z,22.35
2018-09-10T17:38:37.965Z,22.35
2018-09-10T17:41:06.820Z,22.30
2018-09-10T17:43:35.719Z,22.25
2018-09-10T17:46:04.559Z,22.30
2018-09-10T17:48:33.518Z,22.22
2018-09-10T17:51:02.458Z,22.21
2018-09-10T17:53:31.336Z,22.15
2018-09-10T17:56:00.331Z,22.14
2018-09-10T17:58:29.300Z,22.17
2018-09-10T18:00:58.263Z,22.20
2018-09-10T18:03:27.187Z,22.22
2018-09-10T18:05:56.229Z,22.27
2018-09-10T18:08:25.111Z,22.26
2018-09-10T18:10:53.951Z,22.24
2018-09-10T18:13:22.902Z,22.23
2018-09-10T18:15:51.945Z,22.21
2018-09-10T18:18:20.797Z,22.28
2018-09-10T18:20:49.726Z,22.36
2018-09-10T18:23:18.622Z,22.43
2018-09-10T18:25:47.518Z,22.42
2018-09-10T18:28:16.448Z,22.46
2018-09-10T18:30:45.302Z,22.43
2018-09-10T18:33:14.201Z,22.41
2018-09-10T18:35:43.121Z,22.35
2018-09-10T18:38:12.802Z,22.29
2018-09-10T18:40:41.666Z,22.31
2018-09-10T18:43:10.569Z,22.31
2018-09-10T18:45:40.696Z,22.32
2018-09-10T18:48:09.569Z,22.25
2018-09-10T18:50:38.464Z,22.19
2018-09-10T18:53:08.007Z,22.11
2018-09-10T18:55:36.889Z,22.15
2018-09-10T18:58:07.058Z,22.15
2018-09-10T19:00:35.952Z,22.03
2018-09-10T19:03:06.241Z,22.09
2018-09-10T19:05:36.457Z,22.03
2018-09-10T19:08:05.455Z,22.02
2018-09-10T19:10:34.334Z,22.04
2018-09-10T19:13:04.654Z,22.04
2018-09-10T19:15:33.489Z,21.99
2018-09-10T19:18:02.906Z,21.95
2018-09-10T19:20:31.782Z,21.94
2018-09-10T19:23:00.656Z,21.89
2018-09-10T19:25:29.498Z,21.85
2018-09-10T19:27:58.367Z,21.77
2018-09-10T19:30:27.261Z,21.62
2018-09-10T19:32:56.198Z,21.56
2018-09-10T19:35:25.087Z,21.57
2018-09-10T19:37:53.946Z,21.56
2018-09-10T19:40:22.915Z,21.43
2018-09-10T19:42:51.777Z,21.28
2018-09-10T19:45:20.635Z,21.21
2018-09-10T19:47:49.526Z,21.18
2018-09-10T19:50:18.438Z,21.06
2018-09-10T19:52:47.330Z,20.89
2018-09-10T19:55:16.179Z,20.75
2018-09-10T19:57:45.109Z,20.61
2018-09-10T20:00:13.994Z,20.57
2018-09-10T20:02:42.861Z,20.51
2018-09-10T20:05:12.990Z,20.45
2018-09-10T20:07:41.875Z,20.36
2018-09-10T20:10:10.781Z,20.32
2018-09-10T20:12:41.127Z,20.41
2018-09-10T20:15:11.232Z,20.47
2018-09-10T20:17:40.113Z,20.48
2018-09-10T20:20:10.234Z,20.45
2018-09-10T20:22:39.162Z,20.53
2018-09-10T20:25:08.239Z,20.62
2018-09-10T20:27:38.579Z,20.62
2018-09-10T20:30:07.636Z,20.67
2018-09-10T20:32:36.525Z,20.66
2018-09-10T20:35:05.439Z,20.66
2018-09-10T20:37:34.278Z,20.60
2018-09-10T20:40:03.234Z,20.63
2018-09-10T20:42:33.332Z,20.64
2018-09-10T20:45:02.190Z,20.58
2018-09-10T20:47:31.177Z,20.58
2018-09-10T20:50:01.504Z,20.56
2018-09-10T20:52:30.337Z,20.59
2018-09-10T20:54:59.283Z,20.59
2018-09-10T20:57:28.116Z,20.61
2018-09-10T20:59:57.054Z,20.64
2018-09-10T21:02:27.201Z,20.66
2018-09-10T21:04:56.031Z,20.65
2018-09-10T21:07:24.942Z,20.63
2018-09-10T21:09:53.831Z,20.64
2018-09-10T21:12:22.777Z,20.66
2018-09-10T21:14:51.655Z,20.63
2018-09-10T21:17:20.517Z,20.59
2018-09-10T21:19:49.429Z,20.51
2018-09-10T21:22:18.274Z,20.51
2018-09-10T21:24:47.131Z,20.41
2018-09-10T21:27:16.003Z,20.21
2018-09-10T21:29:44.909Z,19.98
2018-09-10T21:32:13.748Z,19.75
2018-09-10T21:34:42.572Z,19.87
2018-09-10T21:37:11.407Z,19.89
2018-09-10T21:39:40.391Z,19.87
2018-09-10T21:42:09.247Z,19.75
2018-09-10T21:44:38.086Z,19.84
2018-09-10T21:47:07.125Z,19.76
2018-09-10T21:49:35.949Z,19.71
2018-09-10T21:52:04.790Z,19.72
2018-09-10T21:54:33.665Z,19.68
2018-09-10T21:57:02.521Z,19.60
2018-09-10T21:59:31.360Z,19.49
2018-09-10T22:02:00.220Z,19.42
2018-09-10T22:04:29.029Z,19.37
2018-09-10T22:06:57.903Z,19.47
2018-09-10T22:09:26.710Z,19.53
2018-09-10T22:12:00.701Z,19.52
2018-09-10T22:14:29.559Z,19.61
2018-09-10T22:16:58.396Z,19.60
2018-09-10T22:19:27.313Z,19.58
2018-09-10T22:21:56.140Z,19.67
2018-09-10T22:24:25.008Z,19.69
2018-09-10T22:26:55.279Z,19.70
2018-09-10T22:29:24.227Z,19.55
2018-09-10T22:31:53.125Z,19.52
2018-09-10T22:34:21.946Z,19.42
2018-09-10T22:36:51.423Z,19.28
2018-09-10T22:39:20.304Z,19.13
2018-09-10T22:41:49.125Z,19.11
2018-09-10T22:44:18.120Z,19.13
2018-09-10T22:46:46.867Z,19.14
2018-09-10T22:49:15.713Z,19.16
2018-09-10T22:51:45.783Z,19.08
2018-09-10T22:54:14.595Z,19.02
2018-09-10T22:56:43.408Z,18.81
2018-09-10T22:59:12.260Z,18.71
2018-09-10T23:01:41.088Z,18.62
2018-09-10T23:04:09.898Z,18.65
2018-09-10T23:06:38.759Z,18.66
2018-09-10T23:09:08.502Z,18.77
2018-09-10T23:11:37.720Z,18.78
2018-09-10T23:14:06.812Z,18.86
2018-09-10T23:16:35.738Z,18.90
2018-09-10T23:19:04.579Z,18.98
2018-09-10T23:21:33.441Z,19.07
2018-09-10T23:24:02.335Z,19.07
2018-09-10T23:26:31.172Z,19.09
2018-09-10T23:29:00.054Z,19.15
2018-09-10T23:31:28.874Z,19.15
2018-09-10T23:33:57.678Z,19.23
2018-09-10T23:36:26.538Z,19.14
2018-09-10T23:38:55.370Z,19.15
2018-09-10T23:41:24.185Z,19.23
2018-09-10T23:43:53.087Z,19.31
2018-09-10T23:46:21.949Z,19.33
2018-09-10T23:48:50.789Z,19.27
2018-09-10T23:51:19.654Z,19.36
2018-09-10T23:53:48.466Z,19.27
2018-09-10T23:56:17.322Z,19.34
2018-09-10T23:58:46.185Z,19.40
